createdAt,value
2018-02-22T00:00:31.751Z,42.83
2018-02-22T00:03:00.161Z,41.45
2018-02-22T00:05:28.564Z,48.60
2018-02-22T00:07:56.965Z,47.33
2018-02-22T00:10:28.425Z,43.67
2018-02-22T00:12:56.894Z,43.70
2018-02-22T00:15:25.310Z,49.40
2018-02-22T00:17:53.694Z,44.25
2018-02-22T00:20:22.112Z,42.65
2018-02-22T00:22:50.582Z,40.92
2018-02-22T00:25:19.126Z,50.22
2018-02-22T00:27:47.536Z,43.05
2018-02-22T00:30:15.945Z,45.78
2018-02-22T00:32:44.355Z,44.72
2018-02-22T00:35:12.760Z,46.88
2018-02-22T00:37:41.240Z,49.55
2018-02-22T00:40:09.650Z,47.25
2018-02-22T00:42:38.073Z,40.45
2018-02-22T00:45:06.507Z,38.75
2018-02-22T00:47:34.910Z,46.22
2018-02-22T00:50:03.378Z,48.17
2018-02-22T00:52:31.783Z,43.72
2018-02-22T00:55:00.182Z,42.62
2018-02-22T00:57:28.573Z,42.40
2018-02-22T00:59:57.098Z,45.22
2018-02-22T01:02:25.674Z,41.55
2018-02-22T01:04:54.062Z,45.95
2018-02-22T01:07:22.453Z,48.55
2018-02-22T01:09:50.872Z,50.17
2018-02-22T01:12:19.336Z,43.40
2018-02-22T01:14:47.811Z,49.22
2018-02-22T01:17:16.214Z,39.38
2018-02-22T01:19:44.621Z,44.45
2018-02-22T01:22:13.031Z,48.70
2018-02-22T01:24:41.426Z,44.65
2018-02-22T01:27:09.828Z,47.25
2018-02-22T01:29:38.241Z,51.40
2018-02-22T01:32:06.637Z,42.05
2018-02-22T01:34:35.053Z,45.38
2018-02-22T01:37:04.088Z,51.00
2018-02-22T01:39:32.481Z,43.05
2018-02-22T01:42:00.871Z,39.55
2018-02-22T01:44:29.271Z,42.62
2018-02-22T01:46:57.663Z,42.92
2018-02-22T01:49:26.060Z,39.78
2018-02-22T01:51:54.548Z,45.95
2018-02-22T01:54:22.952Z,52.65
2018-02-22T01:56:51.335Z,45.92
2018-02-22T01:59:19.748Z,46.00
2018-02-22T02:01:48.674Z,41.17
2018-02-22T02:04:17.083Z,47.53
2018-02-22T02:06:45.482Z,43.45
2018-02-22T02:09:13.937Z,47.95
2018-02-22T02:11:42.334Z,44.50
2018-02-22T02:14:10.725Z,43.50
2018-02-22T02:16:39.149Z,41.63
2018-02-22T02:19:07.576Z,45.22
2018-02-22T02:21:36.056Z,55.00
2018-02-22T02:24:04.460Z,47.72
2018-02-22T02:26:32.959Z,39.72
2018-02-22T02:29:01.342Z,47.17
2018-02-22T02:31:29.832Z,42.17
2018-02-22T02:33:58.218Z,46.00
2018-02-22T02:36:26.634Z,45.92
2018-02-22T02:38:55.106Z,40.60
2018-02-22T02:41:23.499Z,44.67
2018-02-22T02:43:51.884Z,42.88
2018-02-22T02:46:20.292Z,43.83
2018-02-22T02:51:23.257Z,48.53
2018-02-22T02:53:51.740Z,43.28
2018-02-22T02:56:20.133Z,41.08
2018-02-22T02:58:48.543Z,48.50
2018-02-22T03:01:16.942Z,49.40
2018-02-22T03:03:45.356Z,46.88
2018-02-22T03:06:13.760Z,42.90
2018-02-22T03:08:42.167Z,43.80
2018-02-22T03:11:10.574Z,50.33
2018-02-22T03:13:38.997Z,47.58
2018-02-22T03:16:07.391Z,44.08
2018-02-22T03:18:35.800Z,47.55
2018-02-22T03:21:04.232Z,49.08
2018-02-22T03:23:32.642Z,54.50
2018-02-22T03:26:01.156Z,40.50
2018-02-22T03:28:29.564Z,39.83
2018-02-22T03:30:57.981Z,43.25
2018-02-22T03:33:26.469Z,48.28
2018-02-22T03:35:54.839Z,46.13
2018-02-22T03:38:23.335Z,48.25
2018-02-22T03:40:51.829Z,46.78
2018-02-22T03:43:20.247Z,52.47
2018-02-22T03:45:48.939Z,53.17
2018-02-22T03:48:17.306Z,48.00
2018-02-22T03:50:45.743Z,40.63
2018-02-22T03:53:14.111Z,43.30
2018-02-22T03:55:42.514Z,48.20
2018-02-22T03:58:10.904Z,43.28
2018-02-22T04:00:39.421Z,43.53
2018-02-22T04:03:07.792Z,45.05
2018-02-22T04:05:36.256Z,41.28
2018-02-22T04:08:04.622Z,45.58
2018-02-22T04:10:33.094Z,48.13
2018-02-22T04:13:01.506Z,41.97
2018-02-22T04:15:29.929Z,49.10
2018-02-22T04:17:58.487Z,47.90
2018-02-22T04:20:26.892Z,46.72
2018-02-22T04:22:55.253Z,42.25
2018-02-22T04:25:23.743Z,47.08
2018-02-22T04:27:52.118Z,44.42
2018-02-22T04:30:20.612Z,50.42
2018-02-22T04:32:48.988Z,43.80
2018-02-22T04:35:17.398Z,50.60
2018-02-22T04:37:45.767Z,41.85
2018-02-22T04:40:14.134Z,50.80
2018-02-22T04:42:42.574Z,45.70
2018-02-22T04:45:10.966Z,40.75
2018-02-22T04:47:39.373Z,42.78
2018-02-22T04:50:07.752Z,43.05
2018-02-22T04:52:36.129Z,45.97
2018-02-22T04:55:04.584Z,48.53
2018-02-22T04:57:32.978Z,41.78
2018-02-22T05:00:02.386Z,47.75
2018-02-22T05:02:30.779Z,54.55
2018-02-22T05:04:59.141Z,43.55
2018-02-22T05:07:27.585Z,49.35
2018-02-22T05:09:56.006Z,46.75
2018-02-22T05:12:24.397Z,48.22
2018-02-22T05:14:52.800Z,51.08
2018-02-22T05:17:21.162Z,49.08
2018-02-22T05:19:49.609Z,47.05
2018-02-22T05:22:18.007Z,50.50
2018-02-22T05:24:46.383Z,56.17
2018-02-22T05:27:14.765Z,50.80
2018-02-22T05:29:43.143Z,57.15
2018-02-22T05:32:11.621Z,48.30
2018-02-22T05:34:40.030Z,49.40
2018-02-22T05:37:08.400Z,47.95
2018-02-22T05:39:36.769Z,56.17
2018-02-22T05:42:05.158Z,56.28
2018-02-22T05:44:33.699Z,52.08
2018-02-22T05:47:02.091Z,45.00
2018-02-22T05:49:30.464Z,48.83
2018-02-22T05:51:58.844Z,48.33
2018-02-22T05:54:27.215Z,52.17
2018-02-22T05:56:55.663Z,55.35
2018-02-22T05:59:24.084Z,52.20
2018-02-22T06:01:52.454Z,48.70
2018-02-22T06:04:20.867Z,48.28
2018-02-22T06:06:49.354Z,49.17
2018-02-22T06:09:17.802Z,49.67
2018-02-22T06:11:46.194Z,56.42
2018-02-22T06:14:14.571Z,51.13
2018-02-22T06:16:42.948Z,50.78
2018-02-22T06:19:11.323Z,49.10
2018-02-22T06:21:39.762Z,44.63
2018-02-22T06:24:08.165Z,50.08
2018-02-22T06:26:36.546Z,50.70
2018-02-22T06:29:04.935Z,57.08
2018-02-22T06:31:33.308Z,55.15
2018-02-22T06:34:01.763Z,50.60
2018-02-22T06:36:30.485Z,49.05
2018-02-22T06:38:58.881Z,49.35
2018-02-22T06:41:27.378Z,53.13
2018-02-22T06:43:55.774Z,58.50
2018-02-22T06:46:24.211Z,49.67
2018-02-22T06:48:52.620Z,54.20
2018-02-22T06:51:21.883Z,76.40
2018-02-22T06:53:50.266Z,61.15
2018-02-22T06:56:18.658Z,49.20
2018-02-22T06:58:47.182Z,54.00
2018-02-22T07:01:15.560Z,47.90
2018-02-22T07:03:43.931Z,53.80
2018-02-22T07:06:12.308Z,51.47
2018-02-22T07:08:40.805Z,50.75
2018-02-22T07:11:09.271Z,50.08
2018-02-22T07:13:37.677Z,58.83
2018-02-22T07:16:06.045Z,49.50
2018-02-22T07:18:34.420Z,54.65
2018-02-22T07:21:02.918Z,52.42
2018-02-22T07:23:31.374Z,58.70
2018-02-22T07:25:59.870Z,57.50
2018-02-22T07:28:28.240Z,53.47
2018-02-22T07:30:56.636Z,55.50
2018-02-22T07:33:25.013Z,60.15
2018-02-22T07:35:53.774Z,51.25
2018-02-22T07:38:22.281Z,52.92
2018-02-22T07:40:50.659Z,65.43
2018-02-22T07:43:19.055Z,54.17
2018-02-22T07:45:47.436Z,42.75
2018-02-22T07:48:15.871Z,52.45
2018-02-22T07:50:44.313Z,50.92
2018-02-22T07:53:12.693Z,47.17
2018-02-22T07:55:41.070Z,46.22
2018-02-22T07:58:09.480Z,53.00
2018-02-22T08:00:38.104Z,48.00
2018-02-22T08:03:06.482Z,50.72
2018-02-22T08:05:35.022Z,46.40
2018-02-22T08:08:03.364Z,53.75
2018-02-22T08:10:31.744Z,45.97
2018-02-22T08:13:00.194Z,53.08
2018-02-22T08:15:28.562Z,46.95
2018-02-22T08:17:56.925Z,44.05
2018-02-22T08:20:25.335Z,43.83
2018-02-22T08:22:53.713Z,51.47
2018-02-22T08:25:22.180Z,50.20
2018-02-22T08:27:50.686Z,45.65
2018-02-22T08:30:19.206Z,48.78
2018-02-22T08:32:47.671Z,49.40
2018-02-22T08:35:16.059Z,43.63
2018-02-22T08:37:44.438Z,39.70
2018-02-22T08:40:12.822Z,45.92
2018-02-22T08:42:41.356Z,44.25
2018-02-22T08:45:09.736Z,46.58
2018-02-22T08:47:38.102Z,42.00
2018-02-22T08:50:06.551Z,45.88
2018-02-22T08:52:35.074Z,45.67
2018-02-22T08:55:03.587Z,45.33
2018-02-22T08:57:32.158Z,48.72
2018-02-22T09:00:00.533Z,39.85
2018-02-22T09:02:28.916Z,44.90
2018-02-22T09:04:57.301Z,39.95
2018-02-22T09:07:25.756Z,44.00
2018-02-22T09:09:54.138Z,36.42
2018-02-22T09:12:22.523Z,42.05
2018-02-22T09:14:50.910Z,39.78
2018-02-22T09:17:19.316Z,32.55
2018-02-22T09:19:47.792Z,33.67
2018-02-22T09:22:16.197Z,40.00
2018-02-22T09:24:44.552Z,33.00
2018-02-22T09:27:13.015Z,34.83
2018-02-22T09:29:41.434Z,31.53
2018-02-22T09:32:09.867Z,30.93
2018-02-22T09:34:38.234Z,35.23
2018-02-22T09:37:06.631Z,31.05
2018-02-22T09:39:35.019Z,32.53
2018-02-22T09:42:03.436Z,32.00
2018-02-22T09:44:31.981Z,35.47
2018-02-22T09:47:00.357Z,30.90
2018-02-22T09:49:28.773Z,31.50
2018-02-22T09:51:57.122Z,31.30
2018-02-22T09:54:25.482Z,30.43
2018-02-22T09:56:53.923Z,31.13
2018-02-22T09:59:22.307Z,34.23
2018-02-22T10:01:50.667Z,32.90
2018-02-22T10:04:19.063Z,26.23
2018-02-22T10:06:47.434Z,29.45
2018-02-22T10:09:16.074Z,29.92
2018-02-22T10:11:44.499Z,28.62
2018-02-22T10:14:12.962Z,23.33
2018-02-22T10:16:41.349Z,27.15
2018-02-22T10:19:09.711Z,22.33
2018-02-22T10:21:38.143Z,28.95
2018-02-22T10:24:06.532Z,24.63
2018-02-22T10:26:34.948Z,25.05
2018-02-22T10:29:04.262Z,23.05
2018-02-22T10:31:32.653Z,24.23
2018-02-22T10:34:01.089Z,19.45
2018-02-22T10:36:29.602Z,20.60
2018-02-22T10:38:57.983Z,25.37
2018-02-22T10:41:26.348Z,23.00
2018-02-22T10:43:54.721Z,22.98
2018-02-22T10:46:23.264Z,24.73
2018-02-22T10:48:51.722Z,23.55
2018-02-22T10:51:20.107Z,29.30
2018-02-22T10:53:48.473Z,27.67
2018-02-22T10:56:16.834Z,27.70
2018-02-22T10:58:45.208Z,24.17
2018-02-22T11:01:19.148Z,18.77
2018-02-22T11:03:47.536Z,30.42
2018-02-22T11:06:15.909Z,36.80
2018-02-22T11:08:44.301Z,22.40
2018-02-22T11:11:12.663Z,28.38
2018-02-22T11:13:41.139Z,27.42
2018-02-22T11:16:09.585Z,31.85
2018-02-22T11:18:37.991Z,33.60
2018-02-22T11:21:06.399Z,29.77
2018-02-22T11:23:34.875Z,23.90
2018-02-22T11:26:03.272Z,35.95
2018-02-22T11:28:31.685Z,33.08
2018-02-22T11:31:00.164Z,27.52
2018-02-22T11:33:28.587Z,41.15
2018-02-22T11:35:57.049Z,30.20
2018-02-22T11:38:25.521Z,27.58
2018-02-22T11:40:53.915Z,29.55
2018-02-22T11:43:22.411Z,24.87
2018-02-22T11:45:50.892Z,27.15
2018-02-22T11:48:19.282Z,25.25
2018-02-22T11:50:47.678Z,39.42
2018-02-22T11:53:16.142Z,29.92
2018-02-22T11:55:44.549Z,32.30
2018-02-22T11:58:12.986Z,26.60
2018-02-22T12:00:41.472Z,32.20
2018-02-22T12:03:09.908Z,41.92
2018-02-22T12:05:38.417Z,25.77
2018-02-22T12:08:07.185Z,27.98
2018-02-22T12:10:35.601Z,26.85
2018-02-22T12:13:04.023Z,25.37
2018-02-22T12:15:32.551Z,23.58
2018-02-22T12:18:00.965Z,25.98
2018-02-22T12:20:29.361Z,21.75
2018-02-22T12:22:57.988Z,29.25
2018-02-22T12:25:26.382Z,20.48
2018-02-22T12:27:54.755Z,25.08
2018-02-22T12:30:23.192Z,23.00
2018-02-22T12:32:51.570Z,20.48
2018-02-22T12:35:20.054Z,17.50
2018-02-22T12:37:48.522Z,18.97
2018-02-22T12:40:16.922Z,18.30
2018-02-22T12:42:45.318Z,16.60
2018-02-22T12:45:13.819Z,16.60
2018-02-22T12:47:42.303Z,18.37
2018-02-22T12:50:10.691Z,22.43
2018-02-22T12:52:39.097Z,25.80
2018-02-22T12:55:07.569Z,18.67
2018-02-22T12:57:36.054Z,20.97
2018-02-22T13:00:04.462Z,28.30
2018-02-22T13:02:32.867Z,21.10
2018-02-22T13:05:01.283Z,22.60
2018-02-22T13:07:29.769Z,20.50
2018-02-22T13:09:58.284Z,16.90
2018-02-22T13:12:26.688Z,21.70
2018-02-22T13:14:55.068Z,20.67
2018-02-22T13:17:23.503Z,25.30
2018-02-22T13:19:51.974Z,21.58
2018-02-22T13:22:20.366Z,21.73
2018-02-22T13:24:48.768Z,21.90
2018-02-22T13:27:17.233Z,27.10
2018-02-22T13:29:45.637Z,23.10
2018-02-22T13:32:14.095Z,23.48
2018-02-22T13:34:42.488Z,24.70
2018-02-22T13:37:22.727Z,35.03
2018-02-22T13:39:51.138Z,23.05
2018-02-22T13:42:19.535Z,48.70
2018-02-22T13:44:59.625Z,27.25
2018-02-22T13:47:28.099Z,24.92
2018-02-22T13:50:08.110Z,22.62
2018-02-22T13:52:36.579Z,41.63
2018-02-22T13:55:05.243Z,63.83
2018-02-22T13:57:33.650Z,28.87
2018-02-22T14:00:02.052Z,30.65
2018-02-22T14:02:30.431Z,24.20
2018-02-22T14:04:58.887Z,21.77
2018-02-22T14:07:27.278Z,23.02
2018-02-22T14:09:55.851Z,26.40
2018-02-22T14:12:25.145Z,21.40
2018-02-22T14:14:53.514Z,29.60
2018-02-22T14:17:21.880Z,19.80
2018-02-22T14:19:50.283Z,16.52
2018-02-22T14:22:18.719Z,18.73
2018-02-22T14:24:47.094Z,25.02
2018-02-22T14:27:15.494Z,24.23
2018-02-22T14:29:43.885Z,24.25
2018-02-22T14:32:12.267Z,19.80
2018-02-22T14:34:40.726Z,18.55
2018-02-22T14:37:09.103Z,18.08
2018-02-22T14:39:37.472Z,19.98
2018-02-22T14:42:06.034Z,21.33
2018-02-22T14:44:34.415Z,22.23
2018-02-22T14:47:02.781Z,28.95
2018-02-22T14:49:31.209Z,17.83
2018-02-22T14:51:59.623Z,19.80
2018-02-22T14:54:28.019Z,20.67
2018-02-22T14:56:56.555Z,33.58
2018-02-22T14:59:24.941Z,17.70
2018-02-22T15:01:53.324Z,14.77
2018-02-22T15:04:21.784Z,17.30
2018-02-22T15:06:50.150Z,15.10
2018-02-22T15:09:18.610Z,17.80
2018-02-22T15:11:47.046Z,18.73
2018-02-22T15:14:15.445Z,27.73
2018-02-22T15:16:43.832Z,15.35
2018-02-22T15:19:12.400Z,22.48
2018-02-22T15:21:40.777Z,16.37
2018-02-22T15:24:09.191Z,19.48
2018-02-22T15:26:37.637Z,17.12
2018-02-22T15:29:06.010Z,19.60
2018-02-22T15:31:34.456Z,24.35
2018-02-22T15:34:02.819Z,17.17
2018-02-22T15:36:31.295Z,25.88
2018-02-22T15:38:59.828Z,22.85
2018-02-22T15:41:28.220Z,19.02
2018-02-22T15:43:56.605Z,22.75
2018-02-22T15:46:24.996Z,20.35
2018-02-22T15:48:53.381Z,19.20
2018-02-22T15:51:21.849Z,16.90
2018-02-22T15:53:50.238Z,18.00
2018-02-22T15:56:18.699Z,19.85
2018-02-22T15:58:47.106Z,19.98
2018-02-22T16:01:15.495Z,13.40
2018-02-22T16:03:43.961Z,19.05
2018-02-22T16:06:12.346Z,18.45
2018-02-22T16:08:40.726Z,16.25
2018-02-22T16:11:09.284Z,14.38
2018-02-22T16:13:37.845Z,17.90
2018-02-22T16:16:06.626Z,15.02
2018-02-22T16:18:35.219Z,16.27
2018-02-22T16:21:03.762Z,14.55
2018-02-22T16:23:32.144Z,17.48
2018-02-22T16:26:00.616Z,19.08
2018-02-22T16:28:28.998Z,21.27
2018-02-22T16:30:57.385Z,16.12
2018-02-22T16:33:25.824Z,18.23
2018-02-22T16:35:54.228Z,19.58
2018-02-22T16:38:22.609Z,18.58
2018-02-22T16:40:50.989Z,16.05
2018-02-22T16:43:19.380Z,16.67
2018-02-22T16:45:48.114Z,15.20
2018-02-22T16:48:16.509Z,17.33
2018-02-22T16:50:44.896Z,14.90
2018-02-22T16:53:13.283Z,13.02
2018-02-22T16:55:41.682Z,16.52
2018-02-22T16:58:10.121Z,15.07
2018-02-22T17:00:38.511Z,13.57
2018-02-22T17:03:06.899Z,17.48
2018-02-22T17:05:35.298Z,15.18
2018-02-22T17:08:03.696Z,16.00
2018-02-22T17:10:32.202Z,16.27
2018-02-22T17:13:00.598Z,15.55
2018-02-22T17:15:28.979Z,16.42
2018-02-22T17:17:57.376Z,17.62
2018-02-22T17:20:25.765Z,22.15
2018-02-22T17:22:54.235Z,18.17
2018-02-22T17:25:22.258Z,22.15
2018-02-22T17:27:56.286Z,22.92
2018-02-22T17:30:31.082Z,22.98
2018-02-22T17:32:59.540Z,19.08
2018-02-22T17:35:33.513Z,21.37
2018-02-22T17:41:11.795Z,24.55
2018-02-22T17:43:40.314Z,26.48
2018-02-22T17:46:08.692Z,20.25
2018-02-22T17:48:37.123Z,25.77
2018-02-22T17:51:05.481Z,21.25
2018-02-22T17:53:33.900Z,26.87
2018-02-22T17:56:02.254Z,32.92
2018-02-22T17:58:30.646Z,30.75
2018-02-22T18:00:59.017Z,34.47
2018-02-22T18:03:27.542Z,29.63
2018-02-22T18:05:56.073Z,31.30
2018-02-22T18:08:24.440Z,27.40
2018-02-22T18:10:52.795Z,25.17
2018-02-22T18:13:21.150Z,32.83
2018-02-22T18:15:49.524Z,27.02
2018-02-22T18:18:17.956Z,27.33
2018-02-22T18:20:46.325Z,25.75
2018-02-22T18:23:14.709Z,26.02
2018-02-22T18:25:43.087Z,23.48
2018-02-22T18:28:11.531Z,25.98
2018-02-22T18:30:40.033Z,26.02
2018-02-22T18:33:08.414Z,27.83
2018-02-22T18:35:36.765Z,34.38
2018-02-22T18:38:05.147Z,27.15
2018-02-22T18:40:39.127Z,28.98
2018-02-22T18:43:13.213Z,23.70
2018-02-22T18:45:41.588Z,26.00
2018-02-22T18:48:10.060Z,24.63
2018-02-22T18:50:38.447Z,27.83
2018-02-22T18:53:06.847Z,25.50
2018-02-22T18:55:35.227Z,24.75
2018-02-22T18:58:03.627Z,26.42
2018-02-22T19:00:32.048Z,25.83
2018-02-22T19:03:00.428Z,28.45
2018-02-22T19:05:28.818Z,24.73
2018-02-22T19:07:57.224Z,26.17
2018-02-22T19:10:25.589Z,25.00
2018-02-22T19:12:54.013Z,24.12
2018-02-22T19:15:22.477Z,27.83
2018-02-22T19:17:50.857Z,24.25
2018-02-22T19:20:19.243Z,25.98
2018-02-22T19:22:47.616Z,21.52
2018-02-22T19:25:16.027Z,22.50
2018-02-22T19:27:44.407Z,23.95
2018-02-22T19:30:12.769Z,26.40
2018-02-22T19:32:41.248Z,27.83
2018-02-22T19:35:09.612Z,26.80
2018-02-22T19:37:38.418Z,25.33
2018-02-22T19:40:06.791Z,25.60
2018-02-22T19:42:35.156Z,22.98
2018-02-22T19:45:03.527Z,28.52
2018-02-22T19:47:32.142Z,20.90
2018-02-22T19:50:00.550Z,20.33
2018-02-22T19:52:28.958Z,20.75
2018-02-22T19:54:57.319Z,21.85
2018-02-22T19:57:25.756Z,23.55
2018-02-22T19:59:54.292Z,25.15
2018-02-22T20:02:22.709Z,21.98
2018-02-22T20:04:51.085Z,21.40
2018-02-22T20:07:19.450Z,20.23
2018-02-22T20:09:47.815Z,22.98
2018-02-22T20:12:16.265Z,23.67
2018-02-22T20:14:44.971Z,24.83
2018-02-22T20:17:13.343Z,21.50
2018-02-22T20:19:41.707Z,24.25
2018-02-22T20:22:10.079Z,19.05
2018-02-22T20:24:38.449Z,22.70
2018-02-22T20:27:06.857Z,20.83
2018-02-22T20:29:35.220Z,22.65
2018-02-22T20:32:03.725Z,20.35
2018-02-22T20:34:32.086Z,21.65
2018-02-22T20:37:00.461Z,22.55
2018-02-22T20:39:28.818Z,17.92
2018-02-22T20:41:57.179Z,20.65
2018-02-22T20:44:25.576Z,21.08
2018-02-22T20:46:53.950Z,23.40
2018-02-22T20:49:22.326Z,25.62
2018-02-22T20:51:50.885Z,24.80
2018-02-22T20:54:19.288Z,22.13
2018-02-22T20:56:47.694Z,23.92
2018-02-22T20:59:16.145Z,23.23
2018-02-22T21:01:44.595Z,23.15
2018-02-22T21:04:14.026Z,22.65
2018-02-22T21:06:42.671Z,21.75
2018-02-22T21:09:11.308Z,24.25
2018-02-22T21:11:39.705Z,25.70
2018-02-22T21:14:08.261Z,20.37
2018-02-22T21:16:36.657Z,24.23
2018-02-22T21:19:05.136Z,21.55
2018-02-22T21:21:33.526Z,20.90
2018-02-22T21:24:01.928Z,23.92
2018-02-22T21:26:31.379Z,24.87
2018-02-22T21:28:59.764Z,22.65
2018-02-22T21:31:31.245Z,23.17
2018-02-22T21:33:59.732Z,25.40
2018-02-22T21:36:28.488Z,20.20
2018-02-22T21:38:56.880Z,24.58
2018-02-22T21:41:31.538Z,21.00
2018-02-22T21:43:59.973Z,23.12
2018-02-22T21:46:29.160Z,19.75
2018-02-22T21:48:57.617Z,20.33
2018-02-22T21:51:25.991Z,22.52
2018-02-22T21:53:54.342Z,26.30
2018-02-22T21:56:23.080Z,25.20
2018-02-22T21:58:51.442Z,22.20
2018-02-22T22:01:19.823Z,22.35
2018-02-22T22:03:48.185Z,27.20
2018-02-22T22:06:16.537Z,25.00
2018-02-22T22:08:45.270Z,26.33
2018-02-22T22:11:13.638Z,26.00
2018-02-22T22:13:42.008Z,26.05
2018-02-22T22:16:10.360Z,24.50
2018-02-22T22:18:39.095Z,24.65
2018-02-22T22:21:07.605Z,26.08
2018-02-22T22:23:36.254Z,29.25
2018-02-22T22:26:04.632Z,27.00
2018-02-22T22:28:32.993Z,25.30
2018-02-22T22:31:01.464Z,22.77
2018-02-22T22:33:29.932Z,27.40
2018-02-22T22:35:58.286Z,24.55
2018-02-22T22:38:26.654Z,22.35
2018-02-22T22:40:55.029Z,27.75
2018-02-22T22:43:23.506Z,27.58
2018-02-22T22:45:51.926Z,28.15
2018-02-22T22:48:20.399Z,27.75
2018-02-22T22:50:48.753Z,29.02
2018-02-22T22:53:17.116Z,28.45
2018-02-22T22:55:45.476Z,26.40
2018-02-22T22:58:13.867Z,22.13
2018-02-22T23:00:42.278Z,26.35
2018-02-22T23:03:10.634Z,24.42
2018-02-22T23:05:39.020Z,25.33
2018-02-22T23:08:07.386Z,35.10
2018-02-22T23:10:35.861Z,25.60
2018-02-22T23:13:04.219Z,27.05
2018-02-22T23:15:32.603Z,28.60
2018-02-22T23:18:00.969Z,29.45
2018-02-22T23:20:29.317Z,25.92
2018-02-22T23:22:57.694Z,41.47
2018-02-22T23:25:26.048Z,27.98
2018-02-22T23:27:54.410Z,25.00
2018-02-22T23:30:22.762Z,29.95
2018-02-22T23:32:51.120Z,25.80
2018-02-22T23:35:19.518Z,31.67
2018-02-22T23:37:47.906Z,26.62
2018-02-22T23:40:16.350Z,29.77
2018-02-22T23:42:44.740Z,25.27
2018-02-22T23:45:13.143Z,21.45
2018-02-22T23:47:41.535Z,30.73
2018-02-22T23:50:09.937Z,29.52
2018-02-22T23:52:38.348Z,26.73
2018-02-22T23:55:06.802Z,27.02
2018-02-22T23:57:35.184Z,27.55
